Rose, New York
Current Conditions -  °F | °C
As of 4:37 PM on Saturday 25 Oct 2014 (Local Time) from KFZY Reporting Station
Heavy Rain Heavy Rain  
Wind Chill: 57°   Ceiling: 4500
Heat Index: 57°   Visibility: 1.7mi
Dew Point: 52°   Wind: 8mph
Humidity: 83%   Direction: 310°NW
Pressure: 29.56"   Gusts: NA
Location:  43.15°N, 76.88°W
Report Text: KFZY 252037Z AUTO 31007KT 1 3/4SM +RA BKN045 OVC060 14/11 A2956 RMK AO2 VIS 1 1/4V4 LTG DSNT NE RAB1956 P0018 T01390111
Loading
Personal Weather Stations






























Interactive Weather Map
Tropical Storm Tracking
New forecast layout! Learn more

10-Day Weather Forecast

Advertisements
Track Severe Weather on mobile